sensor_id;sensor_type;location;lat;lon;timestamp;pressure;altitude;pressure_sealevel;temperature;humidity
57038;BME280;59942;49.304;8.256;2024-03-08T00:00:07;100362.88;;;5.19;81.82
57038;BME280;59942;49.304;8.256;2024-03-08T00:02:39;100361.50;;;5.03;82.57
57038;BME280;59942;49.304;8.256;2024-03-08T00:05:06;100362.38;;;5.02;82.73
57038;BME280;59942;49.304;8.256;2024-03-08T00:07:37;100352.06;;;5.03;82.43
57038;BME280;59942;49.304;8.256;2024-03-08T00:10:04;100353.25;;;4.87;82.41
57038;BME280;59942;49.304;8.256;2024-03-08T00:12:38;100351.34;;;4.95;82.20
57038;BME280;59942;49.304;8.256;2024-03-08T00:15:05;100355.88;;;4.82;82.68
57038;BME280;59942;49.304;8.256;2024-03-08T00:17:32;100351.75;;;4.74;82.71
57038;BME280;59942;49.304;8.256;2024-03-08T00:19:59;100340.56;;;4.78;81.66
57038;BME280;59942;49.304;8.256;2024-03-08T00:22:29;100346.66;;;4.72;82.73
57038;BME280;59942;49.304;8.256;2024-03-08T00:24:56;100352.66;;;4.73;83.30
57038;BME280;59942;49.304;8.256;2024-03-08T00:27:23;100349.16;;;4.75;83.62
57038;BME280;59942;49.304;8.256;2024-03-08T00:29:49;100350.25;;;4.63;83.38
57038;BME280;59942;49.304;8.256;2024-03-08T00:32:16;100342.66;;;4.57;84.21
57038;BME280;59942;49.304;8.256;2024-03-08T00:34:45;100347.16;;;4.44;84.65
57038;BME280;59942;49.304;8.256;2024-03-08T00:37:14;100340.44;;;4.37;84.99
57038;BME280;59942;49.304;8.256;2024-03-08T00:39:43;100335.84;;;4.55;85.11
57038;BME280;59942;49.304;8.256;2024-03-08T00:42:09;100336.38;;;4.25;84.86
57038;BME280;59942;49.304;8.256;2024-03-08T00:44:36;100335.19;;;4.43;85.00
57038;BME280;59942;49.304;8.256;2024-03-08T00:47:08;100342.28;;;4.32;84.60
57038;BME280;59942;49.304;8.256;2024-03-08T00:49:37;100342.84;;;4.48;85.15
57038;BME280;59942;49.304;8.256;2024-03-08T00:52:05;100337.09;;;4.35;85.01
57038;BME280;59942;49.304;8.256;2024-03-08T00:54:35;100305.56;;;4.27;84.92
57038;BME280;59942;49.304;8.256;2024-03-08T00:57:03;100330.47;;;4.20;85.28
57038;BME280;59942;49.304;8.256;2024-03-08T00:59:30;100327.81;;;4.26;85.16
57038;BME280;59942;49.304;8.256;2024-03-08T01:01:59;100328.78;;;4.21;85.82
57038;BME280;59942;49.304;8.256;2024-03-08T01:04:29;100325.47;;;4.12;85.44
57038;BME280;59942;49.304;8.256;2024-03-08T01:06:58;100326.56;;;3.99;85.60
57038;BME280;59942;49.304;8.256;2024-03-08T01:09:25;100312.81;;;4.03;85.71
57038;BME280;59942;49.304;8.256;2024-03-08T01:11:54;100311.97;;;4.01;85.05
57038;BME280;59942;49.304;8.256;2024-03-08T01:14:24;100312.13;;;3.93;85.48
57038;BME280;59942;49.304;8.256;2024-03-08T01:16:52;100309.28;;;4.10;85.58
57038;BME280;59942;49.304;8.256;2024-03-08T01:19:19;100308.53;;;4.04;85.24
57038;BME280;59942;49.304;8.256;2024-03-08T01:21:45;100312.06;;;3.96;85.30
57038;BME280;59942;49.304;8.256;2024-03-08T01:24:12;100290.09;;;3.81;85.66
57038;BME280;59942;49.304;8.256;2024-03-08T01:26:39;100301.31;;;3.74;85.76
57038;BME280;59942;49.304;8.256;2024-03-08T01:29:06;100291.19;;;3.65;86.83
57038;BME280;59942;49.304;8.256;2024-03-08T01:31:32;100288.88;;;3.50;87.04
57038;BME280;59942;49.304;8.256;2024-03-08T01:34:03;100283.53;;;3.62;86.54
57038;BME280;59942;49.304;8.256;2024-03-08T01:36:29;100279.53;;;3.45;87.15
57038;BME280;59942;49.304;8.256;2024-03-08T01:38:56;100276.84;;;3.52;86.71
57038;BME280;59942;49.304;8.256;2024-03-08T01:41:22;100272.84;;;3.34;87.28
57038;BME280;59942;49.304;8.256;2024-03-08T01:43:49;100277.34;;;3.75;86.42
57038;BME280;59942;49.304;8.256;2024-03-08T01:46:19;100285.34;;;3.55;86.14
57038;BME280;59942;49.304;8.256;2024-03-08T01:48:48;100267.63;;;3.41;86.59
57038;BME280;59942;49.304;8.256;2024-03-08T01:51:18;100266.81;;;3.38;86.67
57038;BME280;59942;49.304;8.256;2024-03-08T01:53:46;100240.22;;;3.43;86.91
57038;BME280;59942;49.304;8.256;2024-03-08T01:56:16;100270.19;;;3.41;86.59
57038;BME280;59942;49.304;8.256;2024-03-08T01:58:46;100269.31;;;3.42;86.36
57038;BME280;59942;49.304;8.256;2024-03-08T02:01:14;100268.25;;;3.56;86.33
57038;BME280;59942;49.304;8.256;2024-03-08T02:03:42;100266.88;;;3.33;87.08
57038;BME280;59942;49.304;8.256;2024-03-08T02:06:12;100243.63;;;3.45;86.72
57038;BME280;59942;49.304;8.256;2024-03-08T02:08:43;100245.63;;;3.25;87.58
57038;BME280;59942;49.304;8.256;2024-03-08T02:11:11;100251.84;;;3.08;87.99
57038;BME280;59942;49.304;8.256;2024-03-08T02:13:38;100237.31;;;3.09;88.63
57038;BME280;59942;49.304;8.256;2024-03-08T02:16:04;100250.09;;;3.10;88.46
57038;BME280;59942;49.304;8.256;2024-03-08T02:18:34;100247.72;;;2.98;88.90
57038;BME280;59942;49.304;8.256;2024-03-08T02:21:03;100241.00;;;2.91;89.32
57038;BME280;59942;49.304;8.256;2024-03-08T02:23:31;100242.69;;;2.92;89.10
57038;BME280;59942;49.304;8.256;2024-03-08T02:26:01;100201.72;;;2.92;88.73
57038;BME280;59942;49.304;8.256;2024-03-08T02:28:27;100230.75;;;2.91;89.09
57038;BME280;59942;49.304;8.256;2024-03-08T02:30:55;100227.22;;;3.00;89.07
57038;BME280;59942;49.304;8.256;2024-03-08T02:33:24;100227.31;;;2.93;88.90
57038;BME280;59942;49.304;8.256;2024-03-08T02:35:54;100224.75;;;2.92;89.22
57038;BME280;59942;49.304;8.256;2024-03-08T02:38:22;100218.00;;;2.88;89.29
57038;BME280;59942;49.304;8.256;2024-03-08T02:40:52;100223.19;;;2.80;89.27
57038;BME280;59942;49.304;8.256;2024-03-08T02:43:22;100222.34;;;2.80;89.43
57038;BME280;59942;49.304;8.256;2024-03-08T02:45:49;100220.69;;;2.77;89.10
57038;BME280;59942;49.304;8.256;2024-03-08T02:48:16;100221.41;;;2.87;88.99
57038;BME280;59942;49.304;8.256;2024-03-08T02:50:43;100213.88;;;2.74;88.39
57038;BME280;59942;49.304;8.256;2024-03-08T02:53:12;100214.56;;;2.87;88.43
57038;BME280;59942;49.304;8.256;2024-03-08T02:55:39;100211.34;;;2.71;88.98
57038;BME280;59942;49.304;8.256;2024-03-08T02:58:10;100211.25;;;2.81;88.32
57038;BME280;59942;49.304;8.256;2024-03-08T03:00:38;100185.09;;;2.57;89.49
57038;BME280;59942;49.304;8.256;2024-03-08T03:03:06;100207.34;;;2.52;90.03
57038;BME280;59942;49.304;8.256;2024-03-08T03:05:33;100201.19;;;2.65;89.66
57038;BME280;59942;49.304;8.256;2024-03-08T03:08:00;100202.06;;;2.64;89.86
57038;BME280;59942;49.304;8.256;2024-03-08T03:10:30;100200.28;;;2.71;89.85
57038;BME280;59942;49.304;8.256;2024-03-08T03:12:59;100205.72;;;2.46;90.03
57038;BME280;59942;49.304;8.256;2024-03-08T03:15:25;100195.50;;;2.43;90.40
57038;BME280;59942;49.304;8.256;2024-03-08T03:17:54;100204.88;;;2.42;90.70
57038;BME280;59942;49.304;8.256;2024-03-08T03:20:21;100193.69;;;2.51;90.64
57038;BME280;59942;49.304;8.256;2024-03-08T03:23:02;100203.84;;;2.59;89.62
57038;BME280;59942;49.304;8.256;2024-03-08T03:25:29;100206.69;;;2.36;90.64
57038;BME280;59942;49.304;8.256;2024-03-08T03:28:01;100201.59;;;2.33;91.27
57038;BME280;59942;49.304;8.256;2024-03-08T03:30:31;100201.63;;;2.28;91.23
57038;BME280;59942;49.304;8.256;2024-03-08T03:33:00;100200.75;;;2.32;91.02
57038;BME280;59942;49.304;8.256;2024-03-08T03:35:28;100194.72;;;2.38;90.29
57038;BME280;59942;49.304;8.256;2024-03-08T03:37:57;100182.09;;;2.21;90.80
57038;BME280;59942;49.304;8.256;2024-03-08T03:40:36;100192.31;;;2.25;91.04
57038;BME280;59942;49.304;8.256;2024-03-08T03:43:03;100184.66;;;2.21;91.47
57038;BME280;59942;49.304;8.256;2024-03-08T03:45:30;100188.00;;;2.29;90.93
57038;BME280;59942;49.304;8.256;2024-03-08T03:48:06;100174.53;;;2.13;91.85
57038;BME280;59942;49.304;8.256;2024-03-08T03:50:38;100189.84;;;2.16;91.12
57038;BME280;59942;49.304;8.256;2024-03-08T03:53:06;100183.06;;;2.12;92.23
57038;BME280;59942;49.304;8.256;2024-03-08T03:55:37;100181.28;;;2.19;92.02
57038;BME280;59942;49.304;8.256;2024-03-08T03:58:06;100180.63;;;2.01;92.52
57038;BME280;59942;49.304;8.256;2024-03-08T04:00:33;100182.31;;;2.04;91.73
57038;BME280;59942;49.304;8.256;2024-03-08T04:03:02;100175.41;;;2.09;92.24
57038;BME280;59942;49.304;8.256;2024-03-08T04:05:33;100173.78;;;2.02;92.73
57038;BME280;59942;49.304;8.256;2024-03-08T04:08:00;100178.16;;;1.95;93.16
57038;BME280;59942;49.304;8.256;2024-03-08T04:10:27;100168.72;;;1.99;92.74
57038;BME280;59942;49.304;8.256;2024-03-08T04:12:56;100177.16;;;2.07;92.33
57038;BME280;59942;49.304;8.256;2024-03-08T04:15:25;100168.63;;;2.08;92.38
57038;BME280;59942;49.304;8.256;2024-03-08T04:17:54;100170.50;;;1.90;93.31
57038;BME280;59942;49.304;8.256;2024-03-08T04:20:21;100164.50;;;1.95;92.98
57038;BME280;59942;49.304;8.256;2024-03-08T04:22:50;100163.63;;;1.97;92.40
57038;BME280;59942;49.304;8.256;2024-03-08T04:25:17;100161.91;;;2.01;92.04
57038;BME280;59942;49.304;8.256;2024-03-08T04:27:46;100160.31;;;1.87;93.08
57038;BME280;59942;49.304;8.256;2024-03-08T04:30:15;100164.66;;;1.78;93.28
57038;BME280;59942;49.304;8.256;2024-03-08T04:32:42;100155.16;;;1.90;92.99
57038;BME280;59942;49.304;8.256;2024-03-08T04:35:09;100167.09;;;1.91;93.04
57038;BME280;59942;49.304;8.256;2024-03-08T04:37:36;100156.16;;;1.77;94.09
57038;BME280;59942;49.304;8.256;2024-03-08T04:40:03;100146.59;;;1.95;92.78
57038;BME280;59942;49.304;8.256;2024-03-08T04:42:32;100154.41;;;1.82;93.52
57038;BME280;59942;49.304;8.256;2024-03-08T04:45:02;100157.03;;;1.73;94.30
57038;BME280;59942;49.304;8.256;2024-03-08T04:47:28;100147.63;;;1.80;94.13
57038;BME280;59942;49.304;8.256;2024-03-08T04:49:55;100149.34;;;1.79;93.56
57038;BME280;59942;49.304;8.256;2024-03-08T04:52:22;100158.78;;;1.69;94.02
57038;BME280;59942;49.304;8.256;2024-03-08T04:54:51;100140.91;;;1.68;94.19
57038;BME280;59942;49.304;8.256;2024-03-08T04:57:18;100139.94;;;1.81;94.06
57038;BME280;59942;49.304;8.256;2024-03-08T04:59:45;100136.63;;;1.71;93.87
57038;BME280;59942;49.304;8.256;2024-03-08T05:02:17;100131.53;;;1.68;94.16
57038;BME280;59942;49.304;8.256;2024-03-08T05:04:44;100133.22;;;1.71;93.84
57038;BME280;59942;49.304;8.256;2024-03-08T05:07:13;100133.31;;;1.60;94.90
57038;BME280;59942;49.304;8.256;2024-03-08T05:09:41;100136.63;;;1.70;94.25
57038;BME280;59942;49.304;8.256;2024-03-08T05:12:08;100125.59;;;1.66;94.50
57038;BME280;59942;49.304;8.256;2024-03-08T05:14:37;100133.28;;;1.66;94.21
57038;BME280;59942;49.304;8.256;2024-03-08T05:17:06;100127.25;;;1.72;93.90
57038;BME280;59942;49.304;8.256;2024-03-08T05:19:33;100134.22;;;1.58;95.04
57038;BME280;59942;49.304;8.256;2024-03-08T05:22:00;100123.13;;;1.57;95.25
57038;BME280;59942;49.304;8.256;2024-03-08T05:24:27;100127.41;;;1.55;95.24
57038;BME280;59942;49.304;8.256;2024-03-08T05:26:53;100131.72;;;1.48;95.72
57038;BME280;59942;49.304;8.256;2024-03-08T05:29:20;100125.72;;;1.54;95.63
57038;BME280;59942;49.304;8.256;2024-03-08T05:31:51;100123.22;;;1.49;96.13
57038;BME280;59942;49.304;8.256;2024-03-08T05:34:21;100115.63;;;1.42;96.31
57038;BME280;59942;49.304;8.256;2024-03-08T05:36:52;100121.56;;;1.42;96.10
57038;BME280;59942;49.304;8.256;2024-03-08T05:39:21;100118.94;;;1.50;96.01
57038;BME280;59942;49.304;8.256;2024-03-08T05:41:48;100119.75;;;1.53;95.41
57038;BME280;59942;49.304;8.256;2024-03-08T05:44:15;100104.53;;;1.43;96.55
57038;BME280;59942;49.304;8.256;2024-03-08T05:46:43;100114.69;;;1.47;95.81
57038;BME280;59942;49.304;8.256;2024-03-08T05:49:15;100103.72;;;1.37;96.81
57038;BME280;59942;49.304;8.256;2024-03-08T05:51:42;100108.75;;;1.45;96.08
57038;BME280;59942;49.304;8.256;2024-03-08T05:54:11;100111.34;;;1.42;96.39
57038;BME280;59942;49.304;8.256;2024-03-08T05:56:42;100107.97;;;1.38;96.96
57038;BME280;59942;49.304;8.256;2024-03-08T05:59:12;100118.06;;;1.51;96.82
57038;BME280;59942;49.304;8.256;2024-03-08T06:01:43;100106.16;;;1.50;96.31
57038;BME280;59942;49.304;8.256;2024-03-08T06:04:12;100115.56;;;1.46;96.52
57038;BME280;59942;49.304;8.256;2024-03-08T06:06:39;100117.28;;;1.43;96.28
57038;BME280;59942;49.304;8.256;2024-03-08T06:09:06;100109.53;;;1.53;95.63
57038;BME280;59942;49.304;8.256;2024-03-08T06:11:38;100110.44;;;1.48;96.35
57038;BME280;59942;49.304;8.256;2024-03-08T06:14:05;100113.84;;;1.47;96.59
57038;BME280;59942;49.304;8.256;2024-03-08T06:16:32;100113.88;;;1.44;96.97
57038;BME280;59942;49.304;8.256;2024-03-08T06:19:00;100113.88;;;1.44;96.77
57038;BME280;59942;49.304;8.256;2024-03-08T06:21:28;100085.06;;;1.31;96.21
57038;BME280;59942;49.304;8.256;2024-03-08T06:23:57;100116.41;;;1.47;96.25
57038;BME280;59942;49.304;8.256;2024-03-08T06:26:25;100114.72;;;1.49;96.15
57038;BME280;59942;49.304;8.256;2024-03-08T06:28:57;100118.78;;;1.67;95.80
57038;BME280;59942;49.304;8.256;2024-03-08T06:31:24;100115.38;;;1.63;95.44
57038;BME280;59942;49.304;8.256;2024-03-08T06:33:51;100111.13;;;1.65;94.66
57038;BME280;59942;49.304;8.256;2024-03-08T06:36:21;100121.28;;;1.71;94.44
57038;BME280;59942;49.304;8.256;2024-03-08T06:38:51;100116.03;;;1.84;94.11
57038;BME280;59942;49.304;8.256;2024-03-08T06:41:18;100119.50;;;1.80;93.80
57038;BME280;59942;49.304;8.256;2024-03-08T06:43:46;100123.78;;;1.74;94.18
57038;BME280;59942;49.304;8.256;2024-03-08T06:46:16;100113.59;;;1.73;94.13
57038;BME280;59942;49.304;8.256;2024-03-08T06:48:43;100104.88;;;1.91;92.73
57038;BME280;59942;49.304;8.256;2024-03-08T06:51:13;100091.28;;;1.86;92.59
57038;BME280;59942;49.304;8.256;2024-03-08T06:53:40;100111.69;;;1.94;93.61
57038;BME280;59942;49.304;8.256;2024-03-08T06:56:07;100112.63;;;1.82;93.75
57038;BME280;59942;49.304;8.256;2024-03-08T06:58:38;100123.53;;;1.98;92.74
57038;BME280;59942;49.304;8.256;2024-03-08T07:01:07;100117.50;;;2.03;92.88
57038;BME280;59942;49.304;8.256;2024-03-08T07:03:43;100121.09;;;1.90;93.77
57038;BME280;59942;49.304;8.256;2024-03-08T07:06:11;100114.91;;;2.06;93.67
57038;BME280;59942;49.304;8.256;2024-03-08T07:08:40;100117.47;;;2.06;93.97
57038;BME280;59942;49.304;8.256;2024-03-08T07:11:06;100113.16;;;2.12;92.91
57038;BME280;59942;49.304;8.256;2024-03-08T07:13:33;100081.72;;;2.02;92.65
57038;BME280;59942;49.304;8.256;2024-03-08T07:16:00;100098.72;;;2.07;93.44
57038;BME280;59942;49.304;8.256;2024-03-08T07:18:29;100107.09;;;2.19;92.42
57038;BME280;59942;49.304;8.256;2024-03-08T07:20:57;100111.97;;;2.39;92.25
57038;BME280;59942;49.304;8.256;2024-03-08T07:23:25;100110.53;;;2.16;92.56
57038;BME280;59942;49.304;8.256;2024-03-08T07:26:11;100105.06;;;2.44;91.85
57038;BME280;59942;49.304;8.256;2024-03-08T07:28:40;100099.59;;;2.70;91.46
57038;BME280;59942;49.304;8.256;2024-03-08T07:31:06;100099.59;;;2.70;90.98
57038;BME280;59942;49.304;8.256;2024-03-08T07:33:47;100093.91;;;2.50;91.61
57038;BME280;59942;49.304;8.256;2024-03-08T07:36:16;100097.09;;;2.64;90.74
57038;BME280;59942;49.304;8.256;2024-03-08T07:38:43;100093.44;;;2.82;90.95
57038;BME280;59942;49.304;8.256;2024-03-08T07:41:15;100090.19;;;3.25;90.69
57038;BME280;59942;49.304;8.256;2024-03-08T07:43:41;100095.28;;;3.27;89.19
57038;BME280;59942;49.304;8.256;2024-03-08T07:46:11;100096.34;;;3.15;89.50
57038;BME280;59942;49.304;8.256;2024-03-08T07:48:39;100096.38;;;3.13;88.01
57038;BME280;59942;49.304;8.256;2024-03-08T07:51:07;100074.28;;;3.55;87.83
57038;BME280;59942;49.304;8.256;2024-03-08T07:53:38;100060.00;;;3.41;88.65
57038;BME280;59942;49.304;8.256;2024-03-08T07:56:08;100081.88;;;3.59;86.90
57038;BME280;59942;49.304;8.256;2024-03-08T07:58:42;100076.31;;;3.82;89.10
57038;BME280;59942;49.304;8.256;2024-03-08T08:01:18;100052.53;;;3.29;84.97
57038;BME280;59942;49.304;8.256;2024-03-08T08:03:45;100078.09;;;3.80;86.39
57038;BME280;59942;49.304;8.256;2024-03-08T08:06:17;100076.13;;;3.93;85.46
57038;BME280;59942;49.304;8.256;2024-03-08T08:08:44;100084.34;;;3.65;85.76
57038;BME280;59942;49.304;8.256;2024-03-08T08:11:11;100083.69;;;3.56;85.51
57038;BME280;59942;49.304;8.256;2024-03-08T08:13:42;100074.25;;;4.00;85.89
57038;BME280;59942;49.304;8.256;2024-03-08T08:16:14;100068.69;;;4.22;85.87
57038;BME280;59942;49.304;8.256;2024-03-08T08:18:40;100074.66;;;4.61;81.08
57038;BME280;59942;49.304;8.256;2024-03-08T08:21:09;100065.38;;;4.16;81.70
57038;BME280;59942;49.304;8.256;2024-03-08T08:23:37;100069.00;;;4.08;83.66
57038;BME280;59942;49.304;8.256;2024-03-08T08:26:04;100060.47;;;4.45;85.21
57038;BME280;59942;49.304;8.256;2024-03-08T08:28:34;100067.00;;;4.21;82.22
57038;BME280;59942;49.304;8.256;2024-03-08T08:31:00;100061.81;;;4.24;83.35
57038;BME280;59942;49.304;8.256;2024-03-08T08:33:27;100054.09;;;4.99;85.47
57038;BME280;59942;49.304;8.256;2024-03-08T08:35:56;100043.69;;;5.69;82.44
57038;BME280;59942;49.304;8.256;2024-03-08T08:38:23;100047.41;;;4.92;81.81
57038;BME280;59942;49.304;8.256;2024-03-08T08:40:49;100048.78;;;5.05;78.93
57038;BME280;59942;49.304;8.256;2024-03-08T08:43:16;100042.06;;;4.99;82.85
57038;BME280;59942;49.304;8.256;2024-03-08T08:45:44;100045.59;;;4.59;82.59
57038;BME280;59942;49.304;8.256;2024-03-08T08:48:12;100034.28;;;5.02;82.45
57038;BME280;59942;49.304;8.256;2024-03-08T08:50:44;100044.78;;;5.28;78.52
57038;BME280;59942;49.304;8.256;2024-03-08T08:53:11;100039.50;;;5.97;78.44
57038;BME280;59942;49.304;8.256;2024-03-08T08:55:40;100029.75;;;6.36;73.42
57038;BME280;59942;49.304;8.256;2024-03-08T08:58:06;100035.78;;;6.07;77.55
57038;BME280;59942;49.304;8.256;2024-03-08T09:00:33;100030.56;;;6.65;76.18
57038;BME280;59942;49.304;8.256;2024-03-08T09:03:00;100037.94;;;5.91;73.64
57038;BME280;59942;49.304;8.256;2024-03-08T09:05:28;100032.72;;;4.97;77.38
57038;BME280;59942;49.304;8.256;2024-03-08T09:07:55;100032.97;;;5.53;77.58
57038;BME280;59942;49.304;8.256;2024-03-08T09:10:22;100023.75;;;5.13;77.77
57038;BME280;59942;49.304;8.256;2024-03-08T09:12:55;100021.59;;;5.62;78.00
57038;BME280;59942;49.304;8.256;2024-03-08T09:15:21;100017.22;;;5.33;76.54
57038;BME280;59942;49.304;8.256;2024-03-08T09:17:48;100017.59;;;5.19;77.15
57038;BME280;59942;49.304;8.256;2024-03-08T09:20:15;100009.25;;;6.05;78.16
57038;BME280;59942;49.304;8.256;2024-03-08T09:22:45;100029.91;;;5.72;75.68
57038;BME280;59942;49.304;8.256;2024-03-08T09:25:12;100011.03;;;5.40;76.45
57038;BME280;59942;49.304;8.256;2024-03-08T09:27:41;100001.97;;;5.89;75.95
57038;BME280;59942;49.304;8.256;2024-03-08T09:30:10;100000.75;;;5.71;73.14
57038;BME280;59942;49.304;8.256;2024-03-08T09:32:39;100015.81;;;5.54;79.56
57038;BME280;59942;49.304;8.256;2024-03-08T09:35:10;100005.84;;;5.43;76.20
57038;BME280;59942;49.304;8.256;2024-03-08T09:37:37;100009.50;;;5.33;78.63
57038;BME280;59942;49.304;8.256;2024-03-08T09:40:04;100009.44;;;5.03;78.11
57038;BME280;59942;49.304;8.256;2024-03-08T09:42:35;100009.53;;;4.28;79.00
57038;BME280;59942;49.304;8.256;2024-03-08T09:45:09;99974.31;;;4.69;82.49
57038;BME280;59942;49.304;8.256;2024-03-08T09:47:44;100014.06;;;4.90;78.01
57038;BME280;59942;49.304;8.256;2024-03-08T09:50:11;100002.38;;;5.11;79.97
57038;BME280;59942;49.304;8.256;2024-03-08T09:52:46;100007.19;;;4.55;79.17
57038;BME280;59942;49.304;8.256;2024-03-08T09:55:16;100004.44;;;4.26;80.52
57038;BME280;59942;49.304;8.256;2024-03-08T09:57:44;100000.53;;;4.47;82.63
57038;BME280;59942;49.304;8.256;2024-03-08T10:00:33;100006.81;;;4.34;80.29
57038;BME280;59942;49.304;8.256;2024-03-08T10:03:01;100006.22;;;4.60;80.94
57038;BME280;59942;49.304;8.256;2024-03-08T10:05:28;99988.38;;;4.90;80.22
57038;BME280;59942;49.304;8.256;2024-03-08T10:07:54;99991.97;;;5.47;80.41
57038;BME280;59942;49.304;8.256;2024-03-08T10:10:23;99989.22;;;5.24;76.13
57038;BME280;59942;49.304;8.256;2024-03-08T10:12:51;99989.28;;;4.87;77.95
57038;BME280;59942;49.304;8.256;2024-03-08T10:15:18;99989.53;;;4.78;79.64
57038;BME280;59942;49.304;8.256;2024-03-08T10:17:44;99983.84;;;5.31;80.01
57038;BME280;59942;49.304;8.256;2024-03-08T10:20:15;99972.94;;;5.54;77.64
57038;BME280;59942;49.304;8.256;2024-03-08T10:22:44;99971.09;;;5.89;78.01
57038;BME280;59942;49.304;8.256;2024-03-08T10:25:32;99979.03;;;4.86;78.91
57038;BME280;59942;49.304;8.256;2024-03-08T10:27:59;99975.09;;;5.07;79.95
57038;BME280;59942;49.304;8.256;2024-03-08T10:30:25;99972.44;;;4.41;79.91
57038;BME280;59942;49.304;8.256;2024-03-08T10:32:54;99972.09;;;4.91;80.79
57038;BME280;59942;49.304;8.256;2024-03-08T10:35:20;99972.44;;;4.41;80.42
57038;BME280;59942;49.304;8.256;2024-03-08T10:37:51;99964.34;;;4.58;79.98
57038;BME280;59942;49.304;8.256;2024-03-08T10:40:29;99963.94;;;4.38;80.89
57038;BME280;59942;49.304;8.256;2024-03-08T10:42:59;99945.19;;;5.34;80.87
57038;BME280;59942;49.304;8.256;2024-03-08T10:45:38;99949.97;;;5.48;79.55
57038;BME280;59942;49.304;8.256;2024-03-08T10:48:34;99945.34;;;4.97;78.01
57038;BME280;59942;49.304;8.256;2024-03-08T10:51:07;99934.03;;;5.04;78.53
57038;BME280;59942;49.304;8.256;2024-03-08T10:53:39;99947.25;;;5.53;77.36
57038;BME280;59942;49.304;8.256;2024-03-08T10:56:08;99949.78;;;5.54;78.73
57038;BME280;59942;49.304;8.256;2024-03-08T10:58:36;99941.13;;;6.17;76.38
57038;BME280;59942;49.304;8.256;2024-03-08T11:01:05;99944.16;;;5.10;77.69
57038;BME280;59942;49.304;8.256;2024-03-08T11:06:18;99940.69;;;5.13;78.45
57038;BME280;59942;49.304;8.256;2024-03-08T11:08:49;99928.31;;;5.26;78.07
57038;BME280;59942;49.304;8.256;2024-03-08T11:11:28;99933.44;;;5.27;75.93
57038;BME280;59942;49.304;8.256;2024-03-08T11:14:01;99928.31;;;5.85;78.08
57038;BME280;59942;49.304;8.256;2024-03-08T11:19:44;99932.88;;;6.05;73.46
57038;BME280;59942;49.304;8.256;2024-03-08T11:21:57;99923.63;;;5.70;75.05
57038;BME280;59942;49.304;8.256;2024-03-08T11:24:26;99896.84;;;5.47;74.66
57038;BME280;59942;49.304;8.256;2024-03-08T11:26:59;99926.56;;;5.86;75.37
57038;BME280;59942;49.304;8.256;2024-03-08T11:34:50;99916.28;;;5.57;75.81
57038;BME280;59942;49.304;8.256;2024-03-08T11:37:28;99893.31;;;6.10;76.47
57038;BME280;59942;49.304;8.256;2024-03-08T11:39:57;99896.09;;;6.81;72.87
57038;BME280;59942;49.304;8.256;2024-03-08T11:42:25;99908.50;;;5.87;73.22
57038;BME280;59942;49.304;8.256;2024-03-08T11:44:54;99901.28;;;6.00;75.50
57038;BME280;59942;49.304;8.256;2024-03-08T11:47:21;99887.94;;;6.16;74.96
57038;BME280;59942;49.304;8.256;2024-03-08T11:49:52;99892.53;;;5.49;74.45
57038;BME280;59942;49.304;8.256;2024-03-08T11:52:19;99890.63;;;5.54;74.66
57038;BME280;59942;49.304;8.256;2024-03-08T11:54:53;99891.31;;;5.61;75.99
57038;BME280;59942;49.304;8.256;2024-03-08T11:57:25;99879.56;;;6.09;72.76
57038;BME280;59942;49.304;8.256;2024-03-08T11:59:58;99888.97;;;6.10;73.16
57038;BME280;59942;49.304;8.256;2024-03-08T12:02:37;99884.38;;;5.63;75.02
57038;BME280;59942;49.304;8.256;2024-03-08T12:05:08;99877.50;;;5.92;76.49
57038;BME280;59942;49.304;8.256;2024-03-08T12:07:42;99871.25;;;6.01;73.77
57038;BME280;59942;49.304;8.256;2024-03-08T12:12:48;99862.81;;;5.96;74.17
57038;BME280;59942;49.304;8.256;2024-03-08T12:15:17;99854.81;;;7.06;73.34
57038;BME280;59942;49.304;8.256;2024-03-08T12:17:45;99858.00;;;6.38;71.37
57038;BME280;59942;49.304;8.256;2024-03-08T12:20:18;99852.72;;;6.43;72.85
57038;BME280;59942;49.304;8.256;2024-03-08T12:22:48;99850.50;;;6.32;72.10
57038;BME280;59942;49.304;8.256;2024-03-08T12:25:16;99843.84;;;6.52;70.54
57038;BME280;59942;49.304;8.256;2024-03-08T12:27:43;99834.25;;;7.28;70.09
57038;BME280;59942;49.304;8.256;2024-03-08T12:32:52;99829.47;;;7.17;69.87
57038;BME280;59942;49.304;8.256;2024-03-08T12:35:23;99824.28;;;7.41;68.42
57038;BME280;59942;49.304;8.256;2024-03-08T12:37:54;99825.31;;;7.37;69.53
57038;BME280;59942;49.304;8.256;2024-03-08T12:40:40;99814.97;;;6.91;68.67
57038;BME280;59942;49.304;8.256;2024-03-08T12:43:10;99803.78;;;8.23;67.97
57038;BME280;59942;49.304;8.256;2024-03-08T12:45:38;99813.22;;;8.24;67.46
57038;BME280;59942;49.304;8.256;2024-03-08T12:48:12;99797.53;;;8.89;63.40
57038;BME280;59942;49.304;8.256;2024-03-08T12:50:40;99787.47;;;7.81;65.89
57038;BME280;59942;49.304;8.256;2024-03-08T12:53:12;99783.34;;;9.17;64.56
57038;BME280;59942;49.304;8.256;2024-03-08T12:55:41;99790.63;;;8.09;62.27
57038;BME280;59942;49.304;8.256;2024-03-08T12:58:08;99788.94;;;8.28;64.50
57038;BME280;59942;49.304;8.256;2024-03-08T13:00:39;99770.06;;;7.42;68.37
57038;BME280;59942;49.304;8.256;2024-03-08T13:03:09;99764.00;;;9.07;64.18
57038;BME280;59942;49.304;8.256;2024-03-08T13:05:41;99768.75;;;8.17;65.94
57038;BME280;59942;49.304;8.256;2024-03-08T13:08:09;99764.88;;;7.44;66.21
57038;BME280;59942;49.304;8.256;2024-03-08T13:10:42;99724.31;;;7.68;69.84
57038;BME280;59942;49.304;8.256;2024-03-08T13:13:11;99754.94;;;7.98;66.87
57038;BME280;59942;49.304;8.256;2024-03-08T13:15:44;99742.50;;;7.22;67.36
57038;BME280;59942;49.304;8.256;2024-03-08T13:18:12;99746.25;;;7.78;69.54
57038;BME280;59942;49.304;8.256;2024-03-08T13:20:39;99740.78;;;8.07;68.60
57038;BME280;59942;49.304;8.256;2024-03-08T13:23:15;99748.41;;;7.69;67.07
57038;BME280;59942;49.304;8.256;2024-03-08T13:25:46;99737.38;;;7.43;67.43
57038;BME280;59942;49.304;8.256;2024-03-08T13:28:18;99733.66;;;7.50;67.92